createdAt,value
2023-01-18T00:01:13.038Z,23.67
2023-01-18T00:03:43.117Z,23.66
2023-01-18T00:06:12.302Z,23.65
2023-01-18T00:08:43.278Z,23.65
2023-01-18T00:11:13.331Z,23.64
2023-01-18T00:13:42.730Z,23.64
2023-01-18T00:16:15.978Z,23.64
2023-01-18T00:18:45.348Z,23.62
2023-01-18T00:21:14.583Z,23.62
2023-01-18T00:23:43.890Z,23.61
2023-01-18T00:26:13.591Z,23.61
2023-01-18T00:28:45.589Z,23.60
2023-01-18T00:31:15.602Z,23.59
2023-01-18T00:33:45.481Z,23.59
2023-01-18T00:36:14.721Z,23.57
2023-01-18T00:38:43.984Z,23.57
2023-01-18T00:41:13.395Z,23.55
2023-01-18T00:43:42.562Z,23.55
2023-01-18T00:46:15.588Z,23.55
2023-01-18T00:48:45.194Z,23.54
2023-01-18T00:51:15.278Z,23.52
2023-01-18T00:53:47.091Z,23.52
2023-01-18T00:56:17.605Z,23.53
2023-01-18T00:58:47.010Z,23.52
2023-01-18T01:01:16.366Z,23.51
2023-01-18T01:04:03.350Z,23.50
2023-01-18T01:06:46.377Z,23.49
2023-01-18T01:09:16.640Z,23.50
2023-01-18T01:11:47.304Z,23.48
2023-01-18T01:14:33.904Z,23.45
2023-01-18T01:17:22.276Z,23.46
2023-01-18T01:20:08.951Z,23.45
2023-01-18T01:22:57.143Z,23.44
2023-01-18T01:25:43.912Z,23.43
2023-01-18T01:28:13.215Z,23.41
2023-01-18T01:30:43.254Z,23.41
2023-01-18T01:33:12.515Z,23.40
2023-01-18T01:35:42.506Z,23.40
2023-01-18T01:38:12.600Z,23.39
2023-01-18T01:40:42.537Z,23.38
2023-01-18T01:43:13.795Z,23.36
2023-01-18T01:45:43.164Z,23.35
2023-01-18T01:48:12.441Z,23.37
2023-01-18T01:50:42.763Z,23.36
2023-01-18T01:53:12.575Z,23.34
2023-01-18T01:55:43.465Z,23.34
2023-01-18T01:58:13.065Z,23.35
2023-01-18T02:00:42.570Z,23.35
2023-01-18T02:03:13.585Z,23.31
2023-01-18T02:05:43.829Z,23.33
2023-01-18T02:08:13.168Z,23.33
2023-01-18T02:10:42.783Z,23.32
2023-01-18T02:13:12.702Z,23.32
2023-01-18T02:15:55.991Z,23.31
2023-01-18T02:18:29.865Z,23.30
2023-01-18T02:21:06.804Z,23.29
2023-01-18T02:23:49.661Z,23.29
2023-01-18T02:26:29.511Z,23.27
2023-01-18T02:29:00.423Z,23.28
2023-01-18T02:31:30.776Z,23.29
2023-01-18T02:34:01.433Z,23.31
2023-01-18T02:36:34.911Z,23.33
2023-01-18T02:39:10.701Z,23.36
2023-01-18T02:42:04.246Z,23.38
2023-01-18T02:44:51.949Z,23.42
2023-01-18T02:47:21.172Z,23.46
2023-01-18T02:49:50.420Z,23.49
2023-01-18T02:52:36.067Z,23.53
2023-01-18T02:55:05.399Z,23.56
2023-01-18T02:57:34.760Z,23.60
2023-01-18T03:00:04.193Z,23.64
2023-01-18T03:02:33.463Z,23.68
2023-01-18T03:05:02.816Z,23.71
2023-01-18T03:07:33.610Z,23.75
2023-01-18T03:10:03.474Z,23.76
2023-01-18T03:12:49.040Z,23.76
2023-01-18T03:15:25.816Z,23.75
2023-01-18T03:17:56.348Z,23.75
2023-01-18T03:20:29.747Z,23.76
2023-01-18T03:23:17.632Z,23.76
2023-01-18T03:25:53.478Z,23.76
2023-01-18T03:28:47.676Z,23.75
2023-01-18T03:31:35.696Z,23.76
2023-01-18T03:34:15.391Z,23.76
2023-01-18T03:36:45.765Z,23.74
2023-01-18T03:39:17.004Z,23.76
2023-01-18T03:41:46.881Z,23.75
2023-01-18T03:44:17.618Z,23.76
2023-01-18T03:46:46.804Z,23.75
2023-01-18T03:49:15.910Z,23.74
2023-01-18T03:51:49.618Z,23.74
2023-01-18T03:54:25.001Z,23.73
2023-01-18T03:56:55.974Z,23.73
2023-01-18T03:59:45.820Z,23.74
2023-01-18T04:02:15.098Z,23.72
2023-01-18T04:04:44.364Z,23.73
2023-01-18T04:07:13.747Z,23.72
2023-01-18T04:09:42.901Z,23.71
2023-01-18T04:12:12.872Z,23.72
2023-01-18T04:14:42.194Z,23.71
2023-01-18T04:17:11.896Z,23.71
2023-01-18T04:19:42.137Z,23.68
2023-01-18T04:22:11.975Z,23.68
2023-01-18T04:24:41.962Z,23.67
2023-01-18T04:27:12.283Z,23.67
2023-01-18T04:29:42.326Z,23.67
2023-01-18T04:32:12.132Z,23.67
2023-01-18T04:34:41.900Z,23.66
2023-01-18T04:37:12.084Z,23.63
2023-01-18T04:39:42.103Z,23.65
2023-01-18T04:42:12.036Z,23.64
2023-01-18T04:44:42.073Z,23.64
2023-01-18T04:47:12.104Z,23.64
2023-01-18T04:49:42.277Z,23.64
2023-01-18T04:52:12.073Z,23.63
2023-01-18T04:54:42.040Z,23.63
2023-01-18T04:57:11.113Z,23.62
2023-01-18T04:59:42.084Z,23.62
2023-01-18T05:02:12.279Z,23.61
2023-01-18T05:04:42.848Z,23.60
2023-01-18T05:07:12.132Z,23.58
2023-01-18T05:09:42.119Z,23.60
2023-01-18T05:12:12.160Z,23.56
2023-01-18T05:14:44.519Z,23.57
2023-01-18T05:17:14.457Z,23.57
2023-01-18T05:19:43.539Z,23.55
2023-01-18T05:22:12.795Z,23.55
2023-01-18T05:24:42.175Z,23.54
2023-01-18T05:27:13.495Z,23.53
2023-01-18T05:29:42.591Z,23.53
2023-01-18T05:32:12.357Z,23.52
2023-01-18T05:34:42.135Z,23.50
2023-01-18T05:37:12.301Z,23.49
2023-01-18T05:39:42.308Z,23.48
2023-01-18T05:42:12.250Z,23.48
2023-01-18T05:44:42.267Z,23.46
2023-01-18T05:47:12.257Z,23.46
2023-01-18T05:49:42.258Z,23.44
2023-01-18T05:52:12.612Z,23.43
2023-01-18T05:54:42.212Z,23.42
2023-01-18T05:57:12.655Z,23.42
2023-01-18T05:59:42.289Z,23.42
2023-01-18T06:02:11.509Z,23.41
2023-01-18T06:04:41.325Z,23.42
2023-01-18T06:07:11.426Z,23.41
2023-01-18T06:09:42.894Z,23.41
2023-01-18T06:12:12.235Z,23.39
2023-01-18T06:14:42.363Z,23.38
2023-01-18T06:17:12.475Z,23.35
2023-01-18T06:19:42.441Z,23.35
2023-01-18T06:22:11.816Z,23.35
2023-01-18T06:24:41.351Z,23.35
2023-01-18T06:27:11.399Z,23.35
2023-01-18T06:29:41.483Z,23.33
2023-01-18T06:32:11.492Z,23.31
2023-01-18T06:34:41.429Z,23.30
2023-01-18T06:37:11.565Z,23.31
2023-01-18T06:39:41.333Z,23.28
2023-01-18T06:42:11.486Z,23.29
2023-01-18T06:44:42.333Z,23.27
2023-01-18T06:47:12.367Z,23.26
2023-01-18T06:49:42.371Z,23.25
2023-01-18T06:52:12.491Z,23.25
2023-01-18T06:54:42.404Z,23.25
2023-01-18T06:57:12.938Z,23.24
2023-01-18T06:59:42.502Z,23.24
2023-01-18T07:02:13.356Z,23.22
2023-01-18T07:04:44.676Z,23.20
2023-01-18T07:07:14.286Z,23.19
2023-01-18T07:09:43.490Z,23.21
2023-01-18T07:12:13.300Z,23.19
2023-01-18T07:14:44.937Z,23.18
2023-01-18T07:17:14.134Z,23.17
2023-01-18T07:19:43.368Z,23.17
2023-01-18T07:22:13.373Z,23.15
2023-01-18T07:24:43.350Z,23.13
2023-01-18T07:27:13.275Z,23.15
2023-01-18T07:29:43.360Z,23.14
2023-01-18T07:32:12.663Z,23.13
2023-01-18T07:34:42.409Z,23.13
2023-01-18T07:37:12.539Z,23.10
2023-01-18T07:39:42.417Z,23.10
2023-01-18T07:42:13.505Z,23.08
2023-01-18T07:44:43.457Z,23.07
2023-01-18T07:47:12.634Z,23.07
2023-01-18T07:49:42.553Z,23.09
2023-01-18T07:52:12.565Z,23.06
2023-01-18T07:54:42.437Z,23.06
2023-01-18T07:57:12.519Z,23.05
2023-01-18T07:59:42.880Z,23.03
2023-01-18T08:02:14.503Z,23.03
2023-01-18T08:04:44.201Z,23.00
2023-01-18T08:07:15.065Z,22.99
2023-01-18T08:09:44.380Z,23.01
2023-01-18T08:12:18.256Z,22.99
2023-01-18T08:14:47.624Z,22.98
2023-01-18T08:17:16.943Z,22.97
2023-01-18T08:19:46.144Z,22.96
2023-01-18T08:22:15.368Z,22.96
2023-01-18T08:24:45.095Z,22.95
2023-01-18T08:27:14.671Z,22.95
2023-01-18T08:29:43.855Z,22.93
2023-01-18T08:32:13.525Z,22.92
2023-01-18T08:34:43.588Z,22.92
2023-01-18T08:37:13.460Z,22.91
2023-01-18T08:39:43.479Z,22.90
2023-01-18T08:42:13.737Z,22.90
2023-01-18T08:44:43.509Z,22.87
2023-01-18T08:47:13.500Z,22.88
2023-01-18T08:49:43.506Z,22.86
2023-01-18T08:52:14.450Z,22.85
2023-01-18T08:54:43.705Z,22.84
2023-01-18T08:57:13.465Z,22.83
2023-01-18T08:59:43.545Z,22.82
2023-01-18T09:02:13.615Z,22.83
2023-01-18T09:04:45.215Z,22.82
2023-01-18T09:07:14.475Z,22.81
2023-01-18T09:09:43.673Z,22.81
2023-01-18T09:12:14.013Z,22.81
2023-01-18T09:14:43.774Z,22.78
2023-01-18T09:17:13.096Z,22.78
2023-01-18T09:19:42.752Z,22.78
2023-01-18T09:22:13.080Z,22.76
2023-01-18T09:24:43.659Z,22.76
2023-01-18T09:27:14.808Z,22.75
2023-01-18T09:29:44.049Z,22.75
2023-01-18T09:32:13.325Z,22.74
2023-01-18T09:34:49.571Z,22.74
2023-01-18T09:37:23.636Z,22.73
2023-01-18T09:39:52.979Z,22.72
2023-01-18T09:42:31.816Z,22.72
2023-01-18T09:45:00.920Z,22.71
2023-01-18T09:47:31.594Z,22.71
2023-01-18T09:50:04.315Z,22.70
2023-01-18T09:52:53.230Z,22.69
2023-01-18T09:55:24.019Z,22.68
2023-01-18T09:58:17.897Z,22.67
2023-01-18T10:01:31.688Z,22.67
2023-01-18T10:10:02.408Z,22.68
2023-01-18T10:15:32.627Z,22.62
2023-01-18T10:18:02.213Z,22.62
2023-01-18T10:20:48.701Z,22.60
2023-01-18T10:23:33.509Z,22.60
2023-01-18T10:26:10.234Z,22.59
2023-01-18T10:28:51.234Z,22.59
2023-01-18T10:34:18.288Z,22.56
2023-01-18T10:36:48.183Z,22.56
2023-01-18T10:39:18.797Z,22.55
2023-01-18T10:41:48.043Z,22.55
2023-01-18T10:44:17.537Z,22.55
2023-01-18T10:46:47.188Z,22.54
2023-01-18T10:49:34.567Z,22.53
2023-01-18T10:52:23.649Z,22.53
2023-01-18T10:55:01.422Z,22.52
2023-01-18T10:57:31.837Z,22.51
2023-01-18T11:00:01.039Z,22.50
2023-01-18T11:02:31.833Z,22.51
2023-01-18T11:05:02.396Z,22.50
2023-01-18T11:07:31.596Z,22.50
2023-01-18T11:10:04.438Z,22.49
2023-01-18T11:12:44.066Z,22.49
2023-01-18T11:15:18.090Z,22.47
2023-01-18T11:17:58.703Z,22.46
2023-01-18T11:20:45.767Z,22.46
2023-01-18T11:23:19.110Z,22.46
2023-01-18T11:25:52.964Z,22.45
2023-01-18T11:28:29.634Z,22.43
2023-01-18T11:31:09.996Z,22.45
2023-01-18T11:33:41.349Z,22.44
2023-01-18T11:36:11.432Z,22.44
2023-01-18T11:38:42.282Z,22.43
2023-01-18T11:41:19.036Z,22.42
2023-01-18T11:44:08.543Z,22.42
2023-01-18T11:46:42.566Z,22.41
2023-01-18T11:49:13.581Z,22.40
2023-01-18T11:51:45.775Z,22.39
2023-01-18T11:54:26.528Z,22.39
2023-01-18T11:56:58.864Z,22.40
2023-01-18T11:59:37.528Z,22.39
2023-01-18T12:02:24.606Z,22.38
2023-01-18T12:05:01.396Z,22.38
2023-01-18T12:07:35.006Z,22.38
2023-01-18T12:10:04.313Z,22.37
2023-01-18T12:12:50.081Z,22.37
2023-01-18T12:15:23.687Z,22.37
2023-01-18T12:18:13.085Z,22.34
2023-01-18T12:20:35.279Z,22.34
2023-01-18T12:23:05.929Z,22.34
2023-01-18T12:25:39.833Z,22.36
2023-01-18T12:28:10.489Z,22.39
2023-01-18T12:30:44.830Z,22.40
2023-01-18T12:33:38.265Z,22.44
2023-01-18T12:35:59.228Z,22.52
2023-01-18T12:38:29.996Z,22.57
2023-01-18T12:41:12.890Z,22.64
2023-01-18T12:44:02.073Z,22.69
2023-01-18T12:46:35.492Z,22.72
2023-01-18T12:49:08.888Z,22.77
2023-01-18T12:51:38.282Z,22.81
2023-01-18T12:54:08.795Z,22.85
2023-01-18T12:56:39.536Z,22.89
2023-01-18T12:59:09.693Z,22.94
2023-01-18T13:01:43.453Z,22.98
2023-01-18T13:04:17.253Z,23.01
2023-01-18T13:06:46.556Z,23.07
2023-01-18T13:09:17.302Z,23.12
2023-01-18T13:11:46.446Z,23.16
2023-01-18T13:14:33.838Z,23.20
2023-01-18T13:17:04.397Z,23.25
2023-01-18T13:19:34.948Z,23.29
2023-01-18T13:22:14.631Z,23.33
2023-01-18T13:25:01.860Z,23.37
2023-01-18T13:27:32.212Z,23.41
2023-01-18T13:30:02.751Z,23.46
2023-01-18T13:32:32.834Z,23.51
2023-01-18T13:35:19.717Z,23.55
2023-01-18T13:37:44.136Z,23.59
2023-01-18T13:40:30.013Z,23.63
2023-01-18T13:42:59.568Z,23.67
2023-01-18T13:45:32.013Z,23.67
2023-01-18T13:48:08.562Z,23.67
2023-01-18T13:50:39.224Z,23.68
2023-01-18T13:53:18.850Z,23.67
2023-01-18T13:55:58.396Z,23.68
2023-01-18T13:58:28.053Z,23.67
2023-01-18T14:00:58.819Z,23.67
2023-01-18T14:03:28.911Z,23.67
2023-01-18T14:06:01.159Z,23.66
2023-01-18T14:08:31.658Z,23.67
2023-01-18T14:11:02.689Z,23.68
2023-01-18T14:13:36.130Z,23.68
2023-01-18T14:16:05.942Z,23.68
2023-01-18T14:18:35.405Z,23.67
2023-01-18T14:21:09.060Z,23.67
2023-01-18T14:23:42.273Z,23.67
2023-01-18T14:26:13.142Z,23.67
2023-01-18T14:28:49.250Z,23.62
2023-01-18T14:31:22.792Z,23.65
2023-01-18T14:33:52.068Z,23.65
2023-01-18T14:36:22.550Z,23.65
2023-01-18T14:38:53.276Z,23.65
2023-01-18T14:41:22.495Z,23.63
2023-01-18T14:43:52.636Z,23.63
2023-01-18T14:46:25.476Z,23.61
2023-01-18T14:48:55.439Z,23.62
2023-01-18T14:51:25.128Z,23.61
2023-01-18T14:54:01.621Z,23.62
2023-01-18T14:56:31.235Z,23.63
2023-01-18T14:59:01.016Z,23.61
2023-01-18T15:01:40.993Z,23.61
2023-01-18T15:04:21.354Z,23.61
2023-01-18T15:06:50.933Z,23.59
2023-01-18T15:09:20.580Z,23.60
2023-01-18T15:11:50.187Z,23.59
2023-01-18T15:14:28.996Z,23.58
2023-01-18T15:16:58.395Z,23.58
2023-01-18T15:19:35.148Z,23.57
2023-01-18T15:22:07.597Z,23.57
2023-01-18T15:24:39.051Z,23.57
2023-01-18T15:27:08.354Z,23.56
2023-01-18T15:29:37.537Z,23.55
2023-01-18T15:32:14.314Z,23.55
2023-01-18T15:34:45.068Z,23.55
2023-01-18T15:37:18.756Z,23.54
2023-01-18T15:39:56.882Z,23.52
2023-01-18T15:42:27.685Z,23.52
2023-01-18T15:44:56.822Z,23.52
2023-01-18T15:47:26.634Z,23.52
2023-01-18T15:49:57.206Z,23.53
2023-01-18T15:52:36.952Z,23.51
2023-01-18T15:55:07.616Z,23.50
2023-01-18T15:57:37.369Z,23.49
2023-01-18T16:00:06.937Z,23.49
2023-01-18T16:02:36.302Z,23.49
2023-01-18T16:05:13.258Z,23.48
2023-01-18T16:07:46.116Z,23.47
2023-01-18T16:10:27.172Z,23.47
2023-01-18T16:12:58.045Z,23.45
2023-01-18T16:15:31.666Z,23.43
2023-01-18T16:18:02.620Z,23.43
2023-01-18T16:20:32.209Z,23.43
2023-01-18T16:23:06.284Z,23.42
2023-01-18T16:25:35.542Z,23.41
2023-01-18T16:28:05.145Z,23.41
2023-01-18T16:30:39.097Z,23.41
2023-01-18T16:33:11.480Z,23.39
2023-01-18T16:35:42.684Z,23.39
2023-01-18T16:38:13.053Z,23.37
2023-01-18T16:40:44.052Z,23.35
2023-01-18T16:43:30.255Z,23.32
2023-01-18T16:45:59.918Z,23.36
2023-01-18T16:48:29.264Z,23.35
2023-01-18T16:50:59.792Z,23.33
2023-01-18T16:53:30.495Z,23.33
2023-01-18T16:55:59.743Z,23.33
2023-01-18T16:58:29.593Z,23.33
2023-01-18T17:01:08.160Z,23.32
2023-01-18T17:03:37.523Z,23.31
2023-01-18T17:06:07.139Z,23.31
2023-01-18T17:08:36.741Z,23.31
2023-01-18T17:11:06.376Z,23.30
2023-01-18T17:13:35.689Z,23.30
2023-01-18T17:16:05.038Z,23.28
2023-01-18T17:18:34.589Z,23.29
2023-01-18T17:21:03.889Z,23.28
2023-01-18T17:23:33.145Z,23.26
2023-01-18T17:26:02.615Z,23.26
2023-01-18T17:28:31.898Z,23.27
2023-01-18T17:31:01.512Z,23.25
2023-01-18T17:33:31.418Z,23.25
2023-01-18T17:36:00.703Z,23.25
2023-01-18T17:40:59.984Z,23.28
2023-01-18T17:43:34.047Z,23.31
2023-01-18T17:46:02.127Z,23.34
2023-01-18T17:48:31.476Z,23.36
2023-01-18T17:51:00.710Z,23.40
2023-01-18T17:53:30.108Z,23.42
2023-01-18T17:55:59.362Z,23.45
2023-01-18T17:58:28.620Z,23.50
2023-01-18T18:00:58.092Z,23.53
2023-01-18T18:03:27.332Z,23.56
2023-01-18T18:06:00.587Z,23.60
2023-01-18T18:08:30.005Z,23.62
2023-01-18T18:11:00.659Z,23.67
2023-01-18T18:13:30.270Z,23.70
2023-01-18T18:15:59.675Z,23.74
2023-01-18T18:18:29.004Z,23.78
2023-01-18T18:20:58.774Z,23.82
2023-01-18T18:23:28.360Z,23.86
2023-01-18T18:26:18.084Z,23.89
2023-01-18T18:28:47.588Z,23.90
2023-01-18T18:31:17.434Z,23.91
2023-01-18T18:33:46.728Z,23.88
2023-01-18T18:36:17.353Z,23.89
2023-01-18T18:38:46.735Z,23.89
2023-01-18T18:41:16.063Z,23.90
2023-01-18T18:43:45.659Z,23.90
2023-01-18T18:46:15.762Z,23.89
2023-01-18T18:48:45.659Z,23.88
2023-01-18T18:51:15.528Z,23.88
2023-01-18T18:53:45.617Z,23.88
2023-01-18T18:56:15.755Z,23.88
2023-01-18T18:58:44.965Z,23.88
2023-01-18T19:01:21.675Z,23.89
2023-01-18T19:03:51.658Z,23.89
2023-01-18T19:06:20.841Z,23.89
2023-01-18T19:08:50.148Z,23.90
2023-01-18T19:11:19.531Z,23.90
2023-01-18T19:13:49.700Z,23.89
2023-01-18T19:16:19.311Z,23.89
2023-01-18T19:18:48.713Z,23.88
2023-01-18T19:21:19.121Z,23.89
2023-01-18T19:23:48.829Z,23.89
2023-01-18T19:26:19.214Z,23.89
2023-01-18T19:28:48.775Z,23.90
2023-01-18T19:31:18.229Z,23.90
2023-01-18T19:33:47.527Z,23.88
2023-01-18T19:36:18.443Z,23.88
2023-01-18T19:38:52.696Z,23.88
2023-01-18T19:41:19.393Z,23.89
2023-01-18T19:43:50.376Z,23.87
2023-01-18T19:46:20.992Z,23.88
2023-01-18T19:48:50.128Z,23.87
2023-01-18T19:51:23.257Z,23.87
2023-01-18T19:53:50.135Z,23.88
2023-01-18T19:56:19.380Z,23.87
2023-01-18T19:58:48.735Z,23.88
2023-01-18T20:01:26.789Z,23.87
2023-01-18T20:03:48.660Z,23.87
2023-01-18T20:06:18.511Z,23.86
2023-01-18T20:08:47.705Z,23.85
2023-01-18T20:11:17.012Z,23.86
2023-01-18T20:13:47.604Z,23.86
2023-01-18T20:16:16.887Z,23.86
2023-01-18T20:18:46.455Z,23.86
2023-01-18T20:21:16.109Z,23.86
2023-01-18T20:23:46.076Z,23.84
2023-01-18T20:26:20.008Z,23.86
2023-01-18T20:28:47.399Z,23.86
2023-01-18T20:31:16.620Z,23.86
2023-01-18T20:33:46.611Z,23.84
2023-01-18T20:36:15.982Z,23.85
2023-01-18T20:38:46.107Z,23.85
2023-01-18T20:41:16.091Z,23.83
2023-01-18T20:43:46.215Z,23.85
2023-01-18T20:46:15.734Z,23.83
2023-01-18T20:48:49.497Z,23.84
2023-01-18T20:51:19.060Z,23.84
2023-01-18T20:53:48.245Z,23.84
2023-01-18T20:56:28.928Z,23.84
2023-01-18T20:58:48.249Z,23.83
2023-01-18T21:01:17.514Z,23.84
2023-01-18T21:03:47.110Z,23.85
2023-01-18T21:06:17.056Z,23.84
2023-01-18T21:08:46.240Z,23.84
2023-01-18T21:11:16.936Z,23.83
2023-01-18T21:13:46.082Z,23.84
2023-01-18T21:16:15.467Z,23.84
2023-01-18T21:18:45.726Z,23.84
2023-01-18T21:21:15.987Z,23.85
2023-01-18T21:23:45.965Z,23.84
2023-01-18T21:26:16.128Z,23.84
2023-01-18T21:28:48.575Z,23.84
2023-01-18T21:31:17.894Z,23.85
2023-01-18T21:33:47.212Z,23.86
2023-01-18T21:36:18.291Z,23.86
2023-01-18T21:38:50.065Z,23.85
2023-01-18T21:41:36.752Z,23.86
2023-01-18T21:44:23.530Z,23.86
2023-01-18T21:46:52.936Z,23.87
2023-01-18T21:52:27.509Z,23.88
2023-01-18T21:54:56.756Z,23.89
2023-01-18T21:57:26.219Z,23.89
2023-01-18T21:59:56.172Z,23.90
2023-01-18T22:02:25.517Z,23.90
2023-01-18T22:05:04.890Z,23.91
2023-01-18T22:07:35.199Z,23.91
2023-01-18T22:10:06.391Z,23.92
2023-01-18T22:12:36.432Z,23.92
2023-01-18T22:15:06.137Z,23.94
2023-01-18T22:17:36.827Z,23.94
2023-01-18T22:20:06.223Z,23.95
2023-01-18T22:22:35.637Z,23.95
2023-01-18T22:25:07.555Z,23.96
2023-01-18T22:27:36.868Z,23.96
2023-01-18T22:30:06.711Z,23.98
2023-01-18T22:32:35.995Z,23.99
2023-01-18T22:35:05.291Z,24.00
2023-01-18T22:37:34.659Z,24.00
2023-01-18T22:40:03.837Z,24.01
2023-01-18T22:42:33.235Z,24.02
2023-01-18T22:45:02.561Z,24.02
2023-01-18T22:47:31.866Z,24.03
2023-01-18T22:50:02.235Z,24.04
2023-01-18T22:52:33.088Z,24.05
2023-01-18T22:55:02.372Z,24.06
2023-01-18T22:57:31.585Z,24.05
2023-01-18T23:00:00.797Z,24.06
2023-01-18T23:02:30.057Z,24.06
2023-01-18T23:04:59.242Z,24.07
2023-01-18T23:07:28.780Z,24.07
2023-01-18T23:09:58.119Z,24.09
2023-01-18T23:12:28.987Z,24.09
2023-01-18T23:15:15.893Z,24.09
2023-01-18T23:17:45.974Z,24.09
2023-01-18T23:20:15.837Z,24.08
2023-01-18T23:22:46.008Z,24.08
2023-01-18T23:25:15.486Z,24.08
2023-01-18T23:27:45.412Z,24.08
2023-01-18T23:30:15.569Z,24.07
2023-01-18T23:32:45.538Z,24.07
2023-01-18T23:35:15.322Z,24.08
2023-01-18T23:37:45.508Z,24.08
2023-01-18T23:40:33.298Z,24.08
2023-01-18T23:43:19.794Z,24.07
2023-01-18T23:46:07.140Z,24.08
2023-01-18T23:48:54.070Z,24.07
2023-01-18T23:51:40.637Z,24.07
2023-01-18T23:54:19.683Z,24.06
2023-01-18T23:56:48.951Z,24.06
2023-01-18T23:59:18.253Z,24.05
